SWA1529 KDEN-KSAN
Flight info
| Callsign | SWA1529 |
|---|---|
| Flight time | 1h 55m |
| Altitude | 34000 |
| Route | BAYLR6 TEHRU PLNDL Q86 TTRUE LUCKI1 |
| Aircraft | B738/M-SDE2E3FGHIRWXY/LB1 |
Departure
| Time | 2026-04-21 03:29 |
|---|---|
| Airport | Denver International Airport (KDEN) |
Arrival
| Time | 2026-04-21 05:24 |
|---|---|
| Airport | San Diego International Airport (KSAN) |
| Time | Latitude | Longitude | Altitude | Speed | Heading |
|---|---|---|---|---|---|
| 2026-04-21 02:54 | 39.86355 | -104.67785 | 5371 ft | 0 kts | 180° |
| 2026-04-21 03:17 | 39.86357 | -104.67785 | 5376 ft | 2 kts | 180° |
| 2026-04-21 03:17 | 39.86382 | -104.67785 | 5372 ft | 4 kts | 180° |
| 2026-04-21 03:17 | 39.86409 | -104.67785 | 5371 ft | 4 kts | 180° |
| 2026-04-21 03:17 | 39.86418 | -104.67785 | 5373 ft | 0 kts | 180° |
| 2026-04-21 03:20 | 39.86413 | -104.67792 | 5374 ft | 2 kts | 228° |
| 2026-04-21 03:20 | 39.86413 | -104.67835 | 5374 ft | 7 kts | 279° |
| 2026-04-21 03:20 | 39.86418 | -104.67907 | 5375 ft | 10 kts | 271° |
| 2026-04-21 03:20 | 39.86418 | -104.68015 | 5374 ft | 13 kts | 270° |
| 2026-04-21 03:21 | 39.86419 | -104.68130 | 5372 ft | 12 kts | 270° |
| 2026-04-21 03:21 | 39.86424 | -104.68222 | 5370 ft | 10 kts | 274° |
| 2026-04-21 03:21 | 39.86426 | -104.68310 | 5368 ft | 10 kts | 270° |
| 2026-04-21 03:21 | 39.86396 | -104.68384 | 5364 ft | 10 kts | 203° |
| 2026-04-21 03:22 | 39.86328 | -104.68390 | 5365 ft | 10 kts | 180° |
| 2026-04-21 03:22 | 39.86259 | -104.68391 | 5366 ft | 10 kts | 180° |
| 2026-04-21 03:22 | 39.86183 | -104.68391 | 5366 ft | 11 kts | 180° |
| 2026-04-21 03:22 | 39.86101 | -104.68393 | 5369 ft | 13 kts | 180° |
| 2026-04-21 03:23 | 39.86013 | -104.68394 | 5369 ft | 13 kts | 180° |
| 2026-04-21 03:23 | 39.85924 | -104.68395 | 5371 ft | 14 kts | 180° |
| 2026-04-21 03:23 | 39.85818 | -104.68396 | 5370 ft | 15 kts | 180° |
| 2026-04-21 03:23 | 39.85714 | -104.68397 | 5371 ft | 15 kts | 180° |
| 2026-04-21 03:24 | 39.85609 | -104.68398 | 5374 ft | 15 kts | 180° |
| 2026-04-21 03:24 | 39.85507 | -104.68400 | 5377 ft | 14 kts | 180° |
| 2026-04-21 03:24 | 39.85408 | -104.68401 | 5377 ft | 14 kts | 181° |
| 2026-04-21 03:24 | 39.85314 | -104.68402 | 5377 ft | 13 kts | 180° |
| 2026-04-21 03:25 | 39.85224 | -104.68405 | 5377 ft | 12 kts | 189° |
| 2026-04-21 03:25 | 39.85204 | -104.68468 | 5378 ft | 8 kts | 271° |
| 2026-04-21 03:25 | 39.85205 | -104.68582 | 5374 ft | 16 kts | 269° |
| 2026-04-21 03:25 | 39.85202 | -104.68751 | 5363 ft | 17 kts | 268° |
| 2026-04-21 03:26 | 39.85198 | -104.68920 | 5359 ft | 18 kts | 269° |
| 2026-04-21 03:26 | 39.85196 | -104.69076 | 5351 ft | 16 kts | 269° |
| 2026-04-21 03:26 | 39.85197 | -104.69226 | 5346 ft | 16 kts | 272° |
| 2026-04-21 03:26 | 39.85201 | -104.69375 | 5338 ft | 17 kts | 271° |
| 2026-04-21 03:27 | 39.85201 | -104.69488 | 5339 ft | 8 kts | 270° |
| 2026-04-21 03:27 | 39.85202 | -104.69561 | 5336 ft | 10 kts | 271° |
| 2026-04-21 03:27 | 39.85230 | -104.69644 | 5337 ft | 11 kts | 324° |
| 2026-04-21 03:27 | 39.85315 | -104.69656 | 5339 ft | 17 kts | 1° |
| 2026-04-21 03:28 | 39.85654 | -104.69652 | 5339 ft | 82 kts | 0° |
| 2026-04-21 03:28 | 39.86436 | -104.69644 | 5335 ft | 142 kts | 0° |
| 2026-04-21 03:28 | 39.87594 | -104.69622 | 5342 ft | 190 kts | 2° |
| 2026-04-21 03:28 | 39.88958 | -104.69614 | 5960 ft | 195 kts | 2° |
| 2026-04-21 03:29 | 39.90337 | -104.69735 | 6659 ft | 204 kts | 344° |
| 2026-04-21 03:29 | 39.91502 | -104.70787 | 7255 ft | 210 kts | 304° |
| 2026-04-21 03:29 | 39.91967 | -104.72648 | 7391 ft | 231 kts | 265° |
| 2026-04-21 03:29 | 39.91398 | -104.74614 | 7641 ft | 241 kts | 230° |
| 2026-04-21 03:30 | 39.90142 | -104.76143 | 7935 ft | 254 kts | 217° |
| 2026-04-21 03:30 | 39.88724 | -104.77637 | 8122 ft | 276 kts | 219° |
| 2026-04-21 03:30 | 39.87201 | -104.79310 | 8485 ft | 293 kts | 220° |
| 2026-04-21 03:30 | 39.85658 | -104.81051 | 9274 ft | 293 kts | 221° |
| 2026-04-21 03:31 | 39.84137 | -104.82795 | 10119 ft | 290 kts | 223° |
| 2026-04-21 03:31 | 39.82621 | -104.84538 | 10775 ft | 296 kts | 223° |
| 2026-04-21 03:31 | 39.81039 | -104.86361 | 10675 ft | 305 kts | 223° |
| 2026-04-21 03:31 | 39.79425 | -104.88220 | 10765 ft | 319 kts | 223° |
| 2026-04-21 03:32 | 39.77816 | -104.90312 | 10964 ft | 338 kts | 237° |
| 2026-04-21 03:32 | 39.76872 | -104.93145 | 11374 ft | 346 kts | 255° |
| 2026-04-21 03:32 | 39.76235 | -104.96193 | 11964 ft | 352 kts | 255° |
| 2026-04-21 03:32 | 39.75582 | -104.99275 | 12662 ft | 354 kts | 255° |
| 2026-04-21 03:33 | 39.74909 | -105.02365 | 13401 ft | 357 kts | 254° |
| 2026-04-21 03:33 | 39.74067 | -105.05410 | 14082 ft | 360 kts | 249° |
| 2026-04-21 03:33 | 39.73075 | -105.08406 | 14735 ft | 362 kts | 247° |
| 2026-04-21 03:33 | 39.72049 | -105.11402 | 15399 ft | 364 kts | 247° |
| 2026-04-21 03:34 | 39.71024 | -105.14417 | 16059 ft | 366 kts | 247° |
| 2026-04-21 03:34 | 39.70020 | -105.17417 | 16695 ft | 368 kts | 247° |
| 2026-04-21 03:34 | 39.69008 | -105.20481 | 17333 ft | 371 kts | 247° |
| 2026-04-21 03:34 | 39.67993 | -105.23569 | 17975 ft | 373 kts | 247° |
| 2026-04-21 03:35 | 39.66970 | -105.26681 | 18592 ft | 375 kts | 247° |
| 2026-04-21 03:35 | 39.65941 | -105.29810 | 19128 ft | 378 kts | 247° |
| 2026-04-21 03:35 | 39.64900 | -105.32971 | 19570 ft | 384 kts | 247° |
| 2026-04-21 03:35 | 39.63846 | -105.36164 | 20104 ft | 387 kts | 247° |
| 2026-04-21 03:36 | 39.62785 | -105.39379 | 20680 ft | 388 kts | 248° |
| 2026-04-21 03:36 | 39.61719 | -105.42611 | 21238 ft | 390 kts | 248° |
| 2026-04-21 03:36 | 39.60649 | -105.45854 | 21758 ft | 393 kts | 248° |
| 2026-04-21 03:36 | 39.59581 | -105.49084 | 22252 ft | 396 kts | 248° |
| 2026-04-21 03:37 | 39.58490 | -105.52367 | 22780 ft | 398 kts | 248° |
| 2026-04-21 03:37 | 39.57387 | -105.55678 | 23276 ft | 401 kts | 248° |
| 2026-04-21 03:37 | 39.56278 | -105.59002 | 23731 ft | 403 kts | 248° |
| 2026-04-21 03:37 | 39.55166 | -105.62354 | 24102 ft | 406 kts | 249° |
| 2026-04-21 03:38 | 39.54146 | -105.65782 | 24484 ft | 409 kts | 251° |
| 2026-04-21 03:38 | 39.53186 | -105.69272 | 24837 ft | 413 kts | 252° |
| 2026-04-21 03:38 | 39.52238 | -105.72800 | 25202 ft | 416 kts | 252° |
| 2026-04-21 03:38 | 39.51283 | -105.76348 | 25570 ft | 419 kts | 252° |
| 2026-04-21 03:39 | 39.50311 | -105.79919 | 25946 ft | 422 kts | 252° |
| 2026-04-21 03:39 | 39.49323 | -105.83510 | 26283 ft | 425 kts | 252° |
| 2026-04-21 03:39 | 39.48320 | -105.87131 | 26607 ft | 428 kts | 252° |
| 2026-04-21 03:39 | 39.47308 | -105.90766 | 26941 ft | 431 kts | 252° |
| 2026-04-21 03:40 | 39.46284 | -105.94432 | 27286 ft | 434 kts | 252° |
| 2026-04-21 03:40 | 39.45254 | -105.98115 | 27620 ft | 437 kts | 252° |
| 2026-04-21 03:40 | 39.44216 | -106.01819 | 27919 ft | 440 kts | 252° |
| 2026-04-21 03:40 | 39.43169 | -106.05555 | 28243 ft | 442 kts | 252° |
| 2026-04-21 03:41 | 39.42117 | -106.09306 | 28552 ft | 445 kts | 252° |
| 2026-04-21 03:41 | 39.41057 | -106.13076 | 28854 ft | 447 kts | 252° |
| 2026-04-21 03:41 | 39.39993 | -106.16858 | 29241 ft | 447 kts | 252° |
| 2026-04-21 03:41 | 39.38930 | -106.20627 | 29726 ft | 446 kts | 253° |
| 2026-04-21 03:42 | 39.37866 | -106.24395 | 30201 ft | 445 kts | 253° |
| 2026-04-21 03:42 | 39.36812 | -106.28128 | 30756 ft | 445 kts | 253° |
| 2026-04-21 03:42 | 39.35766 | -106.31831 | 31090 ft | 445 kts | 253° |
| 2026-04-21 03:42 | 39.34705 | -106.35583 | 31426 ft | 445 kts | 253° |
| 2026-04-21 03:43 | 39.33644 | -106.39331 | 31767 ft | 444 kts | 253° |
| 2026-04-21 03:43 | 39.32584 | -106.43068 | 32081 ft | 444 kts | 253° |
| 2026-04-21 03:43 | 39.31520 | -106.46813 | 32388 ft | 444 kts | 253° |
| 2026-04-21 03:43 | 39.30455 | -106.50558 | 32703 ft | 443 kts | 253° |
| 2026-04-21 03:44 | 39.29391 | -106.54292 | 33006 ft | 443 kts | 253° |
| 2026-04-21 03:44 | 39.28329 | -106.58018 | 33273 ft | 443 kts | 253° |
| 2026-04-21 03:44 | 39.27264 | -106.61747 | 33507 ft | 443 kts | 253° |
| 2026-04-21 03:44 | 39.26193 | -106.65494 | 33796 ft | 444 kts | 253° |
| 2026-04-21 03:45 | 39.25136 | -106.69184 | 34048 ft | 445 kts | 253° |
| 2026-04-21 03:45 | 39.23928 | -106.72867 | 34221 ft | 451 kts | 242° |
| 2026-04-21 03:45 | 39.20072 | -106.79361 | 34243 ft | 458 kts | 233° |
| 2026-04-21 03:46 | 39.16073 | -106.85688 | 34236 ft | 450 kts | 234° |
| 2026-04-21 03:46 | 39.14111 | -106.88823 | 34065 ft | 449 kts | 234° |
| 2026-04-21 03:46 | 39.12156 | -106.91972 | 34038 ft | 450 kts | 234° |
| 2026-04-21 03:47 | 39.08267 | -106.98283 | 34036 ft | 449 kts | 234° |
| 2026-04-21 03:47 | 39.04389 | -107.04593 | 34041 ft | 450 kts | 234° |
| 2026-04-21 03:48 | 39.00523 | -107.10875 | 34038 ft | 451 kts | 234° |
| 2026-04-21 03:48 | 38.96620 | -107.17200 | 34037 ft | 452 kts | 234° |
| 2026-04-21 03:49 | 38.92707 | -107.23528 | 34036 ft | 452 kts | 234° |
| 2026-04-21 03:49 | 38.88791 | -107.29847 | 34050 ft | 452 kts | 234° |
| 2026-04-21 03:50 | 38.84864 | -107.36171 | 34014 ft | 453 kts | 234° |
| 2026-04-21 03:50 | 38.80929 | -107.42496 | 34021 ft | 453 kts | 234° |
| 2026-04-21 03:51 | 38.76988 | -107.48818 | 33999 ft | 453 kts | 234° |
| 2026-04-21 03:51 | 38.73077 | -107.55078 | 34009 ft | 452 kts | 234° |
| 2026-04-21 03:52 | 38.69145 | -107.61361 | 33989 ft | 452 kts | 234° |
| 2026-04-21 03:52 | 38.65211 | -107.67635 | 33988 ft | 451 kts | 233° |
| 2026-04-21 03:53 | 38.61274 | -107.73902 | 33995 ft | 451 kts | 233° |
| 2026-04-21 03:53 | 38.57341 | -107.80149 | 33988 ft | 450 kts | 233° |
| 2026-04-21 03:54 | 38.55373 | -107.83270 | 34145 ft | 450 kts | 233° |
| 2026-04-21 03:54 | 38.53410 | -107.86382 | 34151 ft | 450 kts | 233° |
| 2026-04-21 03:54 | 38.49475 | -107.92609 | 34146 ft | 450 kts | 233° |
| 2026-04-21 03:55 | 38.45540 | -107.98824 | 34150 ft | 450 kts | 233° |
| 2026-04-21 03:55 | 38.41628 | -108.04992 | 34116 ft | 450 kts | 233° |
| 2026-04-21 03:56 | 38.37675 | -108.11210 | 34075 ft | 451 kts | 233° |
| 2026-04-21 03:56 | 38.33722 | -108.17418 | 34048 ft | 451 kts | 233° |
| 2026-04-21 03:57 | 38.29760 | -108.23628 | 34020 ft | 452 kts | 233° |
| 2026-04-21 03:57 | 38.25796 | -108.29830 | 34022 ft | 452 kts | 233° |
| 2026-04-21 03:58 | 38.21852 | -108.35987 | 34023 ft | 452 kts | 233° |
| 2026-04-21 03:58 | 38.17881 | -108.42176 | 34034 ft | 452 kts | 233° |
| 2026-04-21 03:59 | 38.13906 | -108.48359 | 34016 ft | 452 kts | 233° |
| 2026-04-21 04:00 | 38.07935 | -108.57622 | 34000 ft | 451 kts | 233° |
| 2026-04-21 04:00 | 38.03960 | -108.63777 | 34009 ft | 451 kts | 233° |
| 2026-04-21 04:01 | 37.99982 | -108.69923 | 34013 ft | 450 kts | 233° |
| 2026-04-21 04:01 | 37.96004 | -108.76058 | 34012 ft | 450 kts | 232° |
| 2026-04-21 04:02 | 37.92026 | -108.82181 | 34011 ft | 450 kts | 232° |
| 2026-04-21 04:02 | 37.88717 | -108.87265 | 33997 ft | 450 kts | 232° |
| 2026-04-21 04:03 | 37.84729 | -108.93383 | 34003 ft | 450 kts | 232° |
| 2026-04-21 04:03 | 37.80748 | -108.99479 | 34003 ft | 449 kts | 232° |
| 2026-04-21 04:04 | 37.76765 | -109.05565 | 33996 ft | 449 kts | 232° |
| 2026-04-21 04:04 | 37.72779 | -109.11646 | 34024 ft | 449 kts | 232° |
| 2026-04-21 04:05 | 37.68793 | -109.17715 | 34050 ft | 449 kts | 232° |
| 2026-04-21 04:05 | 37.64801 | -109.23783 | 34087 ft | 449 kts | 232° |
| 2026-04-21 04:06 | 37.60807 | -109.29841 | 34119 ft | 449 kts | 232° |
| 2026-04-21 04:06 | 37.56810 | -109.35893 | 34149 ft | 449 kts | 232° |
| 2026-04-21 04:07 | 37.52837 | -109.41899 | 34157 ft | 448 kts | 232° |
| 2026-04-21 04:07 | 37.48838 | -109.47931 | 34152 ft | 448 kts | 232° |
| 2026-04-21 04:08 | 37.44843 | -109.53947 | 34109 ft | 448 kts | 232° |
| 2026-04-21 04:08 | 37.40849 | -109.59950 | 34082 ft | 447 kts | 231° |
| 2026-04-21 04:09 | 37.36851 | -109.65949 | 34038 ft | 447 kts | 231° |
| 2026-04-21 04:09 | 37.32861 | -109.71925 | 33956 ft | 447 kts | 231° |
| 2026-04-21 04:10 | 37.28855 | -109.77914 | 33958 ft | 448 kts | 231° |
| 2026-04-21 04:10 | 37.24843 | -109.83900 | 33956 ft | 447 kts | 231° |
| 2026-04-21 04:11 | 37.20860 | -109.89832 | 33947 ft | 447 kts | 231° |
| 2026-04-21 04:11 | 37.16857 | -109.95784 | 33942 ft | 446 kts | 231° |
| 2026-04-21 04:12 | 37.12859 | -110.01718 | 33942 ft | 445 kts | 231° |
| 2026-04-21 04:12 | 37.08863 | -110.07637 | 33937 ft | 445 kts | 231° |
| 2026-04-21 04:13 | 37.04864 | -110.13551 | 33937 ft | 444 kts | 231° |
| 2026-04-21 04:13 | 37.00869 | -110.19449 | 33938 ft | 444 kts | 231° |
| 2026-04-21 04:14 | 36.96877 | -110.25331 | 33928 ft | 443 kts | 231° |
| 2026-04-21 04:14 | 36.92881 | -110.31209 | 33933 ft | 442 kts | 231° |
| 2026-04-21 04:15 | 36.88927 | -110.37015 | 33935 ft | 441 kts | 231° |
| 2026-04-21 04:15 | 36.84950 | -110.42844 | 33933 ft | 441 kts | 231° |
| 2026-04-21 04:16 | 36.80970 | -110.48668 | 33939 ft | 440 kts | 230° |
| 2026-04-21 04:16 | 36.76994 | -110.54476 | 33937 ft | 440 kts | 230° |
| 2026-04-21 04:17 | 36.73020 | -110.60271 | 33935 ft | 439 kts | 230° |
| 2026-04-21 04:17 | 36.69045 | -110.66057 | 33927 ft | 439 kts | 230° |
| 2026-04-21 04:18 | 36.65074 | -110.71826 | 33928 ft | 438 kts | 230° |
| 2026-04-21 04:18 | 36.61111 | -110.77575 | 33918 ft | 437 kts | 230° |
| 2026-04-21 04:19 | 36.57145 | -110.83318 | 33920 ft | 437 kts | 230° |
| 2026-04-21 04:19 | 36.53187 | -110.89039 | 33910 ft | 436 kts | 230° |
| 2026-04-21 04:20 | 36.49258 | -110.94710 | 33913 ft | 435 kts | 230° |
| 2026-04-21 04:20 | 36.45305 | -111.00405 | 33918 ft | 434 kts | 230° |
| 2026-04-21 04:21 | 36.41360 | -111.06078 | 33915 ft | 434 kts | 230° |
| 2026-04-21 04:21 | 36.37414 | -111.11745 | 33913 ft | 433 kts | 230° |
| 2026-04-21 04:22 | 36.33472 | -111.17394 | 33932 ft | 432 kts | 229° |
| 2026-04-21 04:22 | 36.29535 | -111.23028 | 33919 ft | 432 kts | 229° |
| 2026-04-21 04:23 | 36.25597 | -111.28653 | 33929 ft | 431 kts | 229° |
| 2026-04-21 04:23 | 36.21662 | -111.34265 | 33920 ft | 431 kts | 229° |
| 2026-04-21 04:24 | 36.17730 | -111.39865 | 33930 ft | 431 kts | 229° |
| 2026-04-21 04:24 | 36.13797 | -111.45454 | 33935 ft | 431 kts | 229° |
| 2026-04-21 04:25 | 36.09885 | -111.51006 | 33944 ft | 431 kts | 229° |
| 2026-04-21 04:25 | 36.05945 | -111.56589 | 33968 ft | 431 kts | 229° |
| 2026-04-21 04:26 | 36.01997 | -111.62173 | 33971 ft | 431 kts | 229° |
| 2026-04-21 04:26 | 35.98045 | -111.67753 | 33974 ft | 432 kts | 229° |
| 2026-04-21 04:27 | 35.94085 | -111.73337 | 33999 ft | 432 kts | 229° |
| 2026-04-21 04:27 | 35.90120 | -111.78920 | 34045 ft | 432 kts | 229° |
| 2026-04-21 04:28 | 35.86265 | -111.84338 | 34085 ft | 429 kts | 229° |
| 2026-04-21 04:28 | 35.82665 | -111.90084 | 34012 ft | 422 kts | 240° |
| 2026-04-21 04:29 | 35.79868 | -111.96434 | 34045 ft | 422 kts | 241° |
| 2026-04-21 04:29 | 35.77080 | -112.02737 | 34043 ft | 422 kts | 241° |
| 2026-04-21 04:30 | 35.74230 | -112.09064 | 34053 ft | 423 kts | 240° |
| 2026-04-21 04:30 | 35.71329 | -112.15367 | 34052 ft | 424 kts | 239° |
| 2026-04-21 04:31 | 35.68363 | -112.21639 | 34055 ft | 424 kts | 239° |
| 2026-04-21 04:31 | 35.65394 | -112.27923 | 34052 ft | 425 kts | 239° |
| 2026-04-21 04:32 | 35.62429 | -112.34213 | 34040 ft | 425 kts | 239° |
| 2026-04-21 04:32 | 35.59630 | -112.40144 | 34060 ft | 426 kts | 239° |
| 2026-04-21 04:33 | 35.56722 | -112.46370 | 34046 ft | 426 kts | 239° |
| 2026-04-21 04:33 | 35.53781 | -112.52674 | 34029 ft | 425 kts | 239° |
| 2026-04-21 04:34 | 35.50839 | -112.58965 | 34009 ft | 424 kts | 239° |
| 2026-04-21 04:34 | 35.47901 | -112.65231 | 34011 ft | 423 kts | 239° |
| 2026-04-21 04:35 | 35.44984 | -112.71438 | 34013 ft | 422 kts | 239° |
| 2026-04-21 04:35 | 35.42056 | -112.77658 | 34006 ft | 421 kts | 239° |
| 2026-04-21 04:36 | 35.39128 | -112.83868 | 34013 ft | 420 kts | 238° |
| 2026-04-21 04:36 | 35.36210 | -112.90045 | 33993 ft | 419 kts | 238° |
| 2026-04-21 04:37 | 35.33289 | -112.96217 | 33992 ft | 418 kts | 238° |
| 2026-04-21 04:37 | 35.30372 | -113.02371 | 33981 ft | 417 kts | 238° |
| 2026-04-21 04:38 | 35.27458 | -113.08509 | 33982 ft | 417 kts | 238° |
| 2026-04-21 04:38 | 35.24538 | -113.14648 | 33981 ft | 417 kts | 238° |
| 2026-04-21 04:39 | 35.21639 | -113.20737 | 33969 ft | 416 kts | 238° |
| 2026-04-21 04:39 | 35.18752 | -113.26806 | 33949 ft | 416 kts | 238° |
| 2026-04-21 04:40 | 35.15839 | -113.32920 | 33950 ft | 416 kts | 238° |
| 2026-04-21 04:40 | 35.12922 | -113.39033 | 33926 ft | 416 kts | 238° |
| 2026-04-21 04:41 | 35.10002 | -113.45139 | 33937 ft | 416 kts | 239° |
| 2026-04-21 04:41 | 35.07077 | -113.51248 | 33917 ft | 416 kts | 239° |
| 2026-04-21 04:42 | 35.04148 | -113.57352 | 33919 ft | 417 kts | 239° |
| 2026-04-21 04:42 | 35.01212 | -113.63461 | 33910 ft | 417 kts | 239° |
| 2026-04-21 04:43 | 34.98286 | -113.69538 | 33907 ft | 418 kts | 239° |
| 2026-04-21 04:43 | 34.95344 | -113.75638 | 33916 ft | 418 kts | 239° |
| 2026-04-21 04:44 | 34.92392 | -113.81748 | 33898 ft | 418 kts | 239° |
| 2026-04-21 04:44 | 34.89438 | -113.87855 | 33886 ft | 418 kts | 239° |
| 2026-04-21 04:45 | 34.86475 | -113.93960 | 33885 ft | 418 kts | 239° |
| 2026-04-21 04:45 | 34.83420 | -113.99942 | 33884 ft | 419 kts | 238° |
| 2026-04-21 04:46 | 34.80300 | -114.05932 | 33876 ft | 419 kts | 238° |
| 2026-04-21 04:46 | 34.77188 | -114.11928 | 33887 ft | 419 kts | 238° |
| 2026-04-21 04:47 | 34.74082 | -114.17925 | 33895 ft | 419 kts | 238° |
| 2026-04-21 04:47 | 34.70973 | -114.23925 | 33911 ft | 418 kts | 237° |
| 2026-04-21 04:48 | 34.67873 | -114.29898 | 33927 ft | 418 kts | 237° |
| 2026-04-21 04:48 | 34.64770 | -114.35866 | 33934 ft | 417 kts | 237° |
| 2026-04-21 04:49 | 34.61429 | -114.41606 | 33899 ft | 416 kts | 229° |
| 2026-04-21 04:49 | 34.57561 | -114.46809 | 33885 ft | 414 kts | 227° |
| 2026-04-21 04:50 | 34.54071 | -114.51458 | 33877 ft | 412 kts | 228° |
| 2026-04-21 04:50 | 34.50291 | -114.56597 | 33877 ft | 410 kts | 228° |
| 2026-04-21 04:51 | 34.46527 | -114.61768 | 33869 ft | 408 kts | 228° |
| 2026-04-21 04:51 | 34.42776 | -114.66927 | 33856 ft | 407 kts | 228° |
| 2026-04-21 04:52 | 34.39666 | -114.71198 | 33857 ft | 406 kts | 228° |
| 2026-04-21 04:52 | 34.35921 | -114.76332 | 33851 ft | 406 kts | 229° |
| 2026-04-21 04:53 | 34.32174 | -114.81457 | 33860 ft | 407 kts | 229° |
| 2026-04-21 04:53 | 34.28411 | -114.86597 | 33862 ft | 408 kts | 229° |
| 2026-04-21 04:54 | 34.25057 | -114.91172 | 33868 ft | 410 kts | 229° |
| 2026-04-21 04:54 | 34.21267 | -114.96338 | 33864 ft | 411 kts | 229° |
| 2026-04-21 04:55 | 34.17458 | -115.01522 | 33878 ft | 413 kts | 229° |
| 2026-04-21 04:55 | 34.13636 | -115.06716 | 33860 ft | 414 kts | 227° |
| 2026-04-21 04:56 | 34.09804 | -115.11917 | 33859 ft | 415 kts | 227° |
| 2026-04-21 04:56 | 34.05989 | -115.17087 | 33853 ft | 415 kts | 227° |
| 2026-04-21 04:57 | 34.02150 | -115.22283 | 33852 ft | 415 kts | 227° |
| 2026-04-21 04:57 | 33.98321 | -115.27457 | 33838 ft | 406 kts | 227° |
| 2026-04-21 04:57 | 33.96482 | -115.29948 | 33810 ft | 394 kts | 227° |
| 2026-04-21 04:58 | 33.94676 | -115.32396 | 33512 ft | 387 kts | 227° |
| 2026-04-21 04:58 | 33.92901 | -115.34801 | 33185 ft | 383 kts | 227° |
| 2026-04-21 04:58 | 33.91138 | -115.37189 | 32868 ft | 379 kts | 227° |
| 2026-04-21 04:58 | 33.89393 | -115.39551 | 32496 ft | 377 kts | 227° |
| 2026-04-21 04:59 | 33.87653 | -115.41903 | 32137 ft | 374 kts | 227° |
| 2026-04-21 04:59 | 33.85928 | -115.44235 | 31780 ft | 372 kts | 227° |
| 2026-04-21 04:59 | 33.84213 | -115.46550 | 31427 ft | 369 kts | 227° |
| 2026-04-21 04:59 | 33.82529 | -115.48822 | 31075 ft | 367 kts | 227° |
| 2026-04-21 05:00 | 33.80834 | -115.51109 | 30723 ft | 365 kts | 227° |
| 2026-04-21 05:00 | 33.79146 | -115.53384 | 30390 ft | 362 kts | 227° |
| 2026-04-21 05:00 | 33.75803 | -115.57887 | 29670 ft | 359 kts | 226° |
| 2026-04-21 05:01 | 33.74140 | -115.60124 | 29276 ft | 357 kts | 226° |
| 2026-04-21 05:01 | 33.72490 | -115.62342 | 28897 ft | 355 kts | 226° |
| 2026-04-21 05:01 | 33.70853 | -115.64542 | 28535 ft | 352 kts | 226° |
| 2026-04-21 05:01 | 33.69219 | -115.66715 | 28187 ft | 349 kts | 226° |
| 2026-04-21 05:02 | 33.67590 | -115.68866 | 27819 ft | 346 kts | 226° |
| 2026-04-21 05:02 | 33.65976 | -115.70996 | 27462 ft | 344 kts | 226° |
| 2026-04-21 05:02 | 33.64388 | -115.73092 | 27126 ft | 343 kts | 226° |
| 2026-04-21 05:02 | 33.62751 | -115.75250 | 26804 ft | 360 kts | 226° |
| 2026-04-21 05:03 | 33.61079 | -115.77607 | 26429 ft | 379 kts | 231° |
| 2026-04-21 05:03 | 33.59554 | -115.80206 | 26022 ft | 382 kts | 234° |
| 2026-04-21 05:03 | 33.58236 | -115.82591 | 25669 ft | 381 kts | 234° |
| 2026-04-21 05:03 | 33.56781 | -115.85229 | 25273 ft | 379 kts | 234° |
| 2026-04-21 05:04 | 33.55311 | -115.87846 | 24885 ft | 378 kts | 233° |
| 2026-04-21 05:04 | 33.53824 | -115.90441 | 24497 ft | 376 kts | 233° |
| 2026-04-21 05:04 | 33.52335 | -115.93017 | 24108 ft | 376 kts | 233° |
| 2026-04-21 05:04 | 33.50844 | -115.95588 | 23725 ft | 375 kts | 233° |
| 2026-04-21 05:05 | 33.49356 | -115.98153 | 23264 ft | 375 kts | 233° |
| 2026-04-21 05:05 | 33.47868 | -116.00718 | 22844 ft | 373 kts | 233° |
| 2026-04-21 05:05 | 33.46382 | -116.03279 | 22188 ft | 376 kts | 233° |
| 2026-04-21 05:05 | 33.44893 | -116.05845 | 21752 ft | 373 kts | 233° |
| 2026-04-21 05:06 | 33.43441 | -116.08348 | 21373 ft | 369 kts | 233° |
| 2026-04-21 05:06 | 33.41965 | -116.10889 | 20984 ft | 365 kts | 233° |
| 2026-04-21 05:06 | 33.40541 | -116.13340 | 20618 ft | 361 kts | 233° |
| 2026-04-21 05:06 | 33.39116 | -116.15790 | 20286 ft | 357 kts | 233° |
| 2026-04-21 05:07 | 33.37703 | -116.18217 | 19931 ft | 354 kts | 233° |
| 2026-04-21 05:07 | 33.36298 | -116.20630 | 19578 ft | 351 kts | 233° |
| 2026-04-21 05:07 | 33.34904 | -116.23019 | 19223 ft | 349 kts | 232° |
| 2026-04-21 05:07 | 33.33288 | -116.25153 | 18844 ft | 343 kts | 216° |
| 2026-04-21 05:08 | 33.31246 | -116.26596 | 18535 ft | 339 kts | 206° |
| 2026-04-21 05:08 | 33.29239 | -116.27773 | 18148 ft | 338 kts | 205° |
| 2026-04-21 05:08 | 33.27119 | -116.28979 | 17730 ft | 336 kts | 204° |
| 2026-04-21 05:08 | 33.25010 | -116.30179 | 17309 ft | 335 kts | 205° |
| 2026-04-21 05:09 | 33.22911 | -116.31383 | 16889 ft | 334 kts | 205° |
| 2026-04-21 05:09 | 33.20828 | -116.32588 | 16502 ft | 332 kts | 205° |
| 2026-04-21 05:09 | 33.18758 | -116.33791 | 16125 ft | 330 kts | 205° |
| 2026-04-21 05:09 | 33.16703 | -116.34990 | 15757 ft | 328 kts | 205° |
| 2026-04-21 05:10 | 33.14663 | -116.36181 | 15385 ft | 326 kts | 205° |
| 2026-04-21 05:10 | 33.12631 | -116.37369 | 15015 ft | 324 kts | 205° |
| 2026-04-21 05:10 | 33.10640 | -116.38532 | 14724 ft | 322 kts | 205° |
| 2026-04-21 05:10 | 33.08834 | -116.39587 | 14392 ft | 320 kts | 206° |
| 2026-04-21 05:11 | 33.06863 | -116.40737 | 14050 ft | 319 kts | 206° |
| 2026-04-21 05:11 | 33.04867 | -116.41902 | 13658 ft | 319 kts | 206° |
| 2026-04-21 05:11 | 33.02883 | -116.43059 | 13267 ft | 317 kts | 206° |
| 2026-04-21 05:11 | 33.00910 | -116.44215 | 12908 ft | 314 kts | 207° |
| 2026-04-21 05:12 | 32.99112 | -116.45685 | 12557 ft | 313 kts | 219° |
| 2026-04-21 05:12 | 32.97472 | -116.47378 | 12218 ft | 311 kts | 220° |
| 2026-04-21 05:12 | 32.95849 | -116.49075 | 11874 ft | 310 kts | 220° |
| 2026-04-21 05:12 | 32.94228 | -116.50756 | 11549 ft | 308 kts | 219° |
| 2026-04-21 05:13 | 32.92607 | -116.52419 | 11197 ft | 307 kts | 219° |
| 2026-04-21 05:13 | 32.90990 | -116.54063 | 10866 ft | 305 kts | 219° |
| 2026-04-21 05:13 | 32.89381 | -116.55692 | 10527 ft | 303 kts | 218° |
| 2026-04-21 05:13 | 32.87778 | -116.57308 | 10206 ft | 301 kts | 219° |
| 2026-04-21 05:14 | 32.86178 | -116.58920 | 9897 ft | 300 kts | 219° |
| 2026-04-21 05:14 | 32.84632 | -116.60476 | 9903 ft | 283 kts | 219° |
| 2026-04-21 05:14 | 32.83169 | -116.61950 | 9721 ft | 271 kts | 219° |
| 2026-04-21 05:14 | 32.81740 | -116.63389 | 9364 ft | 268 kts | 219° |
| 2026-04-21 05:15 | 32.80321 | -116.64817 | 8962 ft | 266 kts | 219° |
| 2026-04-21 05:15 | 32.78927 | -116.66218 | 8570 ft | 265 kts | 219° |
| 2026-04-21 05:15 | 32.77526 | -116.67670 | 8169 ft | 263 kts | 226° |
| 2026-04-21 05:15 | 32.76525 | -116.69456 | 7776 ft | 262 kts | 241° |
| 2026-04-21 05:16 | 32.75670 | -116.71357 | 7465 ft | 260 kts | 240° |
| 2026-04-21 05:16 | 32.74795 | -116.73240 | 7221 ft | 262 kts | 240° |
| 2026-04-21 05:16 | 32.73906 | -116.75132 | 6951 ft | 262 kts | 240° |
| 2026-04-21 05:16 | 32.73016 | -116.77020 | 6685 ft | 262 kts | 239° |
| 2026-04-21 05:17 | 32.72124 | -116.78902 | 6409 ft | 260 kts | 240° |
| 2026-04-21 05:17 | 32.71246 | -116.80754 | 6121 ft | 255 kts | 240° |
| 2026-04-21 05:17 | 32.70425 | -116.82620 | 5850 ft | 255 kts | 247° |
| 2026-04-21 05:17 | 32.69822 | -116.84540 | 5682 ft | 245 kts | 250° |
| 2026-04-21 05:18 | 32.69251 | -116.86449 | 5333 ft | 242 kts | 250° |
| 2026-04-21 05:18 | 32.68690 | -116.88324 | 5014 ft | 237 kts | 251° |
| 2026-04-21 05:18 | 32.68162 | -116.90144 | 4764 ft | 229 kts | 251° |
| 2026-04-21 05:18 | 32.67650 | -116.91900 | 4488 ft | 222 kts | 251° |
| 2026-04-21 05:19 | 32.67301 | -116.93644 | 4193 ft | 215 kts | 272° |
| 2026-04-21 05:19 | 32.67585 | -116.95335 | 3979 ft | 205 kts | 286° |
| 2026-04-21 05:19 | 32.67980 | -116.96933 | 3742 ft | 199 kts | 286° |
| 2026-04-21 05:19 | 32.68364 | -116.98487 | 3518 ft | 192 kts | 286° |
| 2026-04-21 05:20 | 32.68724 | -116.99950 | 3288 ft | 182 kts | 286° |
| 2026-04-21 05:20 | 32.69077 | -117.01386 | 3068 ft | 178 kts | 286° |
| 2026-04-21 05:20 | 32.69418 | -117.02780 | 2850 ft | 176 kts | 286° |
| 2026-04-21 05:20 | 32.69752 | -117.04145 | 2633 ft | 176 kts | 286° |
| 2026-04-21 05:21 | 32.70092 | -117.05535 | 2414 ft | 176 kts | 286° |
| 2026-04-21 05:21 | 32.70426 | -117.06905 | 2220 ft | 168 kts | 286° |
| 2026-04-21 05:21 | 32.70740 | -117.08189 | 1993 ft | 158 kts | 286° |
| 2026-04-21 05:21 | 32.71040 | -117.09424 | 1733 ft | 152 kts | 286° |
| 2026-04-21 05:22 | 32.71335 | -117.10636 | 1490 ft | 155 kts | 286° |
| 2026-04-21 05:22 | 32.71634 | -117.11865 | 1271 ft | 155 kts | 286° |
| 2026-04-21 05:22 | 32.71932 | -117.13090 | 1033 ft | 152 kts | 286° |
| 2026-04-21 05:22 | 32.72228 | -117.14277 | 825 ft | 148 kts | 286° |
| 2026-04-21 05:23 | 32.72508 | -117.15446 | 598 ft | 146 kts | 285° |
| 2026-04-21 05:23 | 32.72787 | -117.16608 | 377 ft | 146 kts | 285° |
| 2026-04-21 05:23 | 32.73067 | -117.17779 | 126 ft | 147 kts | 285° |
| 2026-04-21 05:23 | 32.73338 | -117.18905 | 27 ft | 131 kts | 286° |
| 2026-04-21 05:24 | 32.73549 | -117.19765 | 27 ft | 79 kts | 286° |
| 2026-04-21 05:24 | 32.73637 | -117.20125 | 24 ft | 19 kts | 284° |
| 2026-04-21 05:24 | 32.73615 | -117.20201 | 23 ft | 4 kts | 210° |
| 2026-04-21 05:24 | 32.73594 | -117.20211 | 22 ft | 3 kts | 195° |
| 2026-04-21 05:25 | 32.73579 | -117.20215 | 23 ft | 0 kts | 195° |
| 2026-04-21 05:26 | 32.73578 | -117.20216 | 23 ft | 0 kts | 195° |
| 2026-04-21 05:26 | 32.73555 | -117.20201 | 22 ft | 6 kts | 127° |
| 2026-04-21 05:26 | 32.73537 | -117.20143 | 22 ft | 11 kts | 105° |
| 2026-04-21 05:27 | 32.73514 | -117.20047 | 23 ft | 12 kts | 106° |
| 2026-04-21 05:27 | 32.73491 | -117.19949 | 22 ft | 12 kts | 106° |
| 2026-04-21 05:27 | 32.73470 | -117.19876 | 24 ft | 6 kts | 129° |
| 2026-04-21 05:27 | 32.73430 | -117.19862 | 22 ft | 6 kts | 173° |
| 2026-04-21 05:28 | 32.73391 | -117.19859 | 22 ft | 3 kts | 182° |
| 2026-04-21 05:28 | 32.73384 | -117.19859 | 22 ft | 0 kts | 181° |